sensor_id;sensor_type;location;lat;lon;timestamp;P1;durP1;ratioP1;P2;durP2;ratioP2
6342;SDS011;3204;42.698;23.298;2022-11-20T00:00:01;1.63;;;1.52;;
6342;SDS011;3204;42.698;23.298;2022-11-20T00:02:28;4.35;;;1.33;;
6342;SDS011;3204;42.698;23.298;2022-11-20T00:04:53;2.38;;;2.17;;
6342;SDS011;3204;42.698;23.298;2022-11-20T00:07:18;4.22;;;3.33;;
6342;SDS011;3204;42.698;23.298;2022-11-20T00:09:44;2.50;;;2.30;;
6342;SDS011;3204;42.698;23.298;2022-11-20T00:12:09;3.42;;;1.90;;
6342;SDS011;3204;42.698;23.298;2022-11-20T00:14:35;1.92;;;1.40;;
6342;SDS011;3204;42.698;23.298;2022-11-20T00:17:00;1.60;;;1.25;;
6342;SDS011;3204;42.698;23.298;2022-11-20T00:19:26;1.60;;;1.50;;
6342;SDS011;3204;42.698;23.298;2022-11-20T00:21:51;1.95;;;1.38;;
6342;SDS011;3204;42.698;23.298;2022-11-20T00:24:18;1.98;;;1.35;;
6342;SDS011;3204;42.698;23.298;2022-11-20T00:26:44;1.63;;;1.30;;
6342;SDS011;3204;42.698;23.298;2022-11-20T00:29:09;1.30;;;1.20;;
6342;SDS011;3204;42.698;23.298;2022-11-20T00:31:35;1.60;;;1.50;;
6342;SDS011;3204;42.698;23.298;2022-11-20T00:34:01;3.05;;;1.25;;
6342;SDS011;3204;42.698;23.298;2022-11-20T00:36:27;3.85;;;1.20;;
6342;SDS011;3204;42.698;23.298;2022-11-20T00:38:54;1.60;;;1.50;;
6342;SDS011;3204;42.698;23.298;2022-11-20T00:41:22;3.35;;;1.25;;
6342;SDS011;3204;42.698;23.298;2022-11-20T00:43:48;1.40;;;1.35;;
6342;SDS011;3204;42.698;23.298;2022-11-20T00:46:14;1.40;;;1.30;;
6342;SDS011;3204;42.698;23.298;2022-11-20T00:48:41;1.90;;;1.35;;
6342;SDS011;3204;42.698;23.298;2022-11-20T00:51:08;1.17;;;1.00;;
6342;SDS011;3204;42.698;23.298;2022-11-20T00:53:34;1.75;;;1.30;;
6342;SDS011;3204;42.698;23.298;2022-11-20T00:56:00;1.75;;;1.23;;
6342;SDS011;3204;42.698;23.298;2022-11-20T00:58:31;3.80;;;1.60;;
6342;SDS011;3204;42.698;23.298;2022-11-20T01:01:04;3.10;;;1.60;;
6342;SDS011;3204;42.698;23.298;2022-11-20T01:03:32;1.70;;;1.60;;
6342;SDS011;3204;42.698;23.298;2022-11-20T01:06:01;1.50;;;1.40;;
6342;SDS011;3204;42.698;23.298;2022-11-20T01:08:31;2.88;;;1.30;;
6342;SDS011;3204;42.698;23.298;2022-11-20T01:10:58;1.48;;;1.38;;
6342;SDS011;3204;42.698;23.298;2022-11-20T01:13:25;2.10;;;1.38;;
6342;SDS011;3204;42.698;23.298;2022-11-20T01:16:13;2.63;;;1.30;;
6342;SDS011;3204;42.698;23.298;2022-11-20T01:18:41;1.80;;;1.50;;
6342;SDS011;3204;42.698;23.298;2022-11-20T01:21:09;1.40;;;1.27;;
6342;SDS011;3204;42.698;23.298;2022-11-20T01:23:46;3.15;;;1.50;;
6342;SDS011;3204;42.698;23.298;2022-11-20T01:26:13;1.40;;;1.30;;
6342;SDS011;3204;42.698;23.298;2022-11-20T01:28:44;1.00;;;1.00;;
6342;SDS011;3204;42.698;23.298;2022-11-20T01:31:19;1.67;;;1.42;;
6342;SDS011;3204;42.698;23.298;2022-11-20T01:33:47;1.23;;;1.13;;
6342;SDS011;3204;42.698;23.298;2022-11-20T01:36:16;1.27;;;1.27;;
6342;SDS011;3204;42.698;23.298;2022-11-20T01:38:42;1.20;;;1.10;;
6342;SDS011;3204;42.698;23.298;2022-11-20T01:41:09;1.20;;;1.10;;
6342;SDS011;3204;42.698;23.298;2022-11-20T01:43:35;1.30;;;1.20;;
6342;SDS011;3204;42.698;23.298;2022-11-20T01:51:26;1.40;;;1.30;;
6342;SDS011;3204;42.698;23.298;2022-11-20T01:54:02;1.30;;;1.20;;
6342;SDS011;3204;42.698;23.298;2022-11-20T01:56:33;2.10;;;2.00;;
6342;SDS011;3204;42.698;23.298;2022-11-20T01:59:04;2.58;;;1.60;;
6342;SDS011;3204;42.698;23.298;2022-11-20T02:01:32;2.28;;;1.10;;
6342;SDS011;3204;42.698;23.298;2022-11-20T02:03:58;1.20;;;1.20;;
6342;SDS011;3204;42.698;23.298;2022-11-20T02:06:26;1.27;;;1.23;;
6342;SDS011;3204;42.698;23.298;2022-11-20T02:08:54;2.50;;;1.23;;
6342;SDS011;3204;42.698;23.298;2022-11-20T02:11:20;1.85;;;1.65;;
6342;SDS011;3204;42.698;23.298;2022-11-20T02:13:46;2.10;;;1.30;;
6342;SDS011;3204;42.698;23.298;2022-11-20T02:16:23;2.03;;;1.30;;
6342;SDS011;3204;42.698;23.298;2022-11-20T02:18:51;1.30;;;1.20;;
6342;SDS011;3204;42.698;23.298;2022-11-20T02:24:11;1.30;;;1.20;;
6342;SDS011;3204;42.698;23.298;2022-11-20T02:27:01;3.15;;;1.50;;
6342;SDS011;3204;42.698;23.298;2022-11-20T02:32:01;3.10;;;1.30;;
6342;SDS011;3204;42.698;23.298;2022-11-20T02:34:27;3.92;;;1.38;;
6342;SDS011;3204;42.698;23.298;2022-11-20T02:36:53;1.40;;;1.30;;
6342;SDS011;3204;42.698;23.298;2022-11-20T02:39:20;2.45;;;1.23;;
6342;SDS011;3204;42.698;23.298;2022-11-20T02:41:49;1.70;;;1.17;;
6342;SDS011;3204;42.698;23.298;2022-11-20T02:44:20;1.88;;;1.40;;
6342;SDS011;3204;42.698;23.298;2022-11-20T02:46:46;2.05;;;1.60;;
6342;SDS011;3204;42.698;23.298;2022-11-20T02:49:11;1.45;;;1.35;;
6342;SDS011;3204;42.698;23.298;2022-11-20T02:51:37;2.28;;;1.38;;
6342;SDS011;3204;42.698;23.298;2022-11-20T02:54:03;1.77;;;1.40;;
6342;SDS011;3204;42.698;23.298;2022-11-20T02:56:28;1.42;;;1.33;;
6342;SDS011;3204;42.698;23.298;2022-11-20T02:58:54;3.85;;;1.77;;
6342;SDS011;3204;42.698;23.298;2022-11-20T03:01:20;5.57;;;1.50;;
6342;SDS011;3204;42.698;23.298;2022-11-20T03:03:46;3.67;;;1.65;;
6342;SDS011;3204;42.698;23.298;2022-11-20T03:06:13;1.77;;;1.40;;
6342;SDS011;3204;42.698;23.298;2022-11-20T03:08:40;3.78;;;1.60;;
6342;SDS011;3204;42.698;23.298;2022-11-20T03:11:06;2.13;;;1.70;;
6342;SDS011;3204;42.698;23.298;2022-11-20T03:13:32;4.07;;;1.77;;
6342;SDS011;3204;42.698;23.298;2022-11-20T03:16:04;3.47;;;1.98;;
6342;SDS011;3204;42.698;23.298;2022-11-20T03:18:33;2.15;;;1.52;;
6342;SDS011;3204;42.698;23.298;2022-11-20T03:20:58;1.77;;;1.60;;
6342;SDS011;3204;42.698;23.298;2022-11-20T03:23:24;2.35;;;2.15;;
6342;SDS011;3204;42.698;23.298;2022-11-20T03:25:50;2.63;;;1.70;;
6342;SDS011;3204;42.698;23.298;2022-11-20T03:28:16;2.15;;;1.95;;
6342;SDS011;3204;42.698;23.298;2022-11-20T03:30:41;1.63;;;1.40;;
6342;SDS011;3204;42.698;23.298;2022-11-20T03:33:06;1.77;;;1.42;;
6342;SDS011;3204;42.698;23.298;2022-11-20T03:35:32;5.70;;;1.92;;
6342;SDS011;3204;42.698;23.298;2022-11-20T03:37:57;1.63;;;1.52;;
6342;SDS011;3204;42.698;23.298;2022-11-20T03:40:23;2.28;;;1.73;;
6342;SDS011;3204;42.698;23.298;2022-11-20T03:42:49;2.00;;;1.80;;
6342;SDS011;3204;42.698;23.298;2022-11-20T03:45:18;1.80;;;1.70;;
6342;SDS011;3204;42.698;23.298;2022-11-20T03:47:44;2.17;;;1.75;;
6342;SDS011;3204;42.698;23.298;2022-11-20T03:50:11;1.88;;;1.63;;
6342;SDS011;3204;42.698;23.298;2022-11-20T03:52:38;2.60;;;1.45;;
6342;SDS011;3204;42.698;23.298;2022-11-20T03:55:05;2.00;;;1.55;;
6342;SDS011;3204;42.698;23.298;2022-11-20T03:57:31;2.47;;;1.38;;
6342;SDS011;3204;42.698;23.298;2022-11-20T03:59:57;1.55;;;1.45;;
6342;SDS011;3204;42.698;23.298;2022-11-20T04:02:22;1.30;;;1.20;;
6342;SDS011;3204;42.698;23.298;2022-11-20T04:04:47;1.60;;;1.50;;
6342;SDS011;3204;42.698;23.298;2022-11-20T04:07:13;1.35;;;1.25;;
6342;SDS011;3204;42.698;23.298;2022-11-20T04:09:39;5.00;;;1.92;;
6342;SDS011;3204;42.698;23.298;2022-11-20T04:12:04;1.83;;;1.58;;
6342;SDS011;3204;42.698;23.298;2022-11-20T04:14:30;2.72;;;1.50;;
6342;SDS011;3204;42.698;23.298;2022-11-20T04:16:55;1.40;;;1.30;;
6342;SDS011;3204;42.698;23.298;2022-11-20T04:19:21;3.08;;;1.45;;
6342;SDS011;3204;42.698;23.298;2022-11-20T04:21:46;1.30;;;1.20;;
6342;SDS011;3204;42.698;23.298;2022-11-20T04:24:12;1.98;;;1.17;;
6342;SDS011;3204;42.698;23.298;2022-11-20T04:26:38;3.38;;;1.30;;
6342;SDS011;3204;42.698;23.298;2022-11-20T04:29:04;2.25;;;1.40;;
6342;SDS011;3204;42.698;23.298;2022-11-20T04:31:31;2.38;;;1.50;;
6342;SDS011;3204;42.698;23.298;2022-11-20T04:34:05;2.47;;;1.30;;
6342;SDS011;3204;42.698;23.298;2022-11-20T04:36:32;2.47;;;1.50;;
6342;SDS011;3204;42.698;23.298;2022-11-20T04:38:59;1.35;;;1.13;;
6342;SDS011;3204;42.698;23.298;2022-11-20T04:41:27;1.80;;;1.30;;
6342;SDS011;3204;42.698;23.298;2022-11-20T04:43:58;3.35;;;1.30;;
6342;SDS011;3204;42.698;23.298;2022-11-20T04:46:27;2.45;;;1.30;;
6342;SDS011;3204;42.698;23.298;2022-11-20T04:48:54;1.73;;;1.58;;
6342;SDS011;3204;42.698;23.298;2022-11-20T04:51:19;2.90;;;1.20;;
6342;SDS011;3204;42.698;23.298;2022-11-20T04:53:45;2.95;;;1.17;;
6342;SDS011;3204;42.698;23.298;2022-11-20T04:56:11;1.45;;;1.23;;
6342;SDS011;3204;42.698;23.298;2022-11-20T04:58:37;2.75;;;1.30;;
6342;SDS011;3204;42.698;23.298;2022-11-20T05:01:04;2.03;;;1.27;;
6342;SDS011;3204;42.698;23.298;2022-11-20T05:03:31;2.13;;;1.15;;
6342;SDS011;3204;42.698;23.298;2022-11-20T05:05:59;2.20;;;1.17;;
6342;SDS011;3204;42.698;23.298;2022-11-20T05:08:26;1.83;;;1.42;;
6342;SDS011;3204;42.698;23.298;2022-11-20T05:10:52;2.22;;;1.38;;
6342;SDS011;3204;42.698;23.298;2022-11-20T05:13:17;2.70;;;1.30;;
6342;SDS011;3204;42.698;23.298;2022-11-20T05:15:43;1.20;;;1.10;;
6342;SDS011;3204;42.698;23.298;2022-11-20T05:18:08;1.50;;;1.40;;
6342;SDS011;3204;42.698;23.298;2022-11-20T05:20:34;1.73;;;1.20;;
6342;SDS011;3204;42.698;23.298;2022-11-20T05:23:01;1.10;;;1.02;;
6342;SDS011;3204;42.698;23.298;2022-11-20T05:25:27;1.55;;;1.45;;
6342;SDS011;3204;42.698;23.298;2022-11-20T05:27:53;1.25;;;1.10;;
6342;SDS011;3204;42.698;23.298;2022-11-20T05:30:18;2.45;;;1.20;;
6342;SDS011;3204;42.698;23.298;2022-11-20T05:32:44;2.53;;;1.10;;
6342;SDS011;3204;42.698;23.298;2022-11-20T05:35:09;1.92;;;1.35;;
6342;SDS011;3204;42.698;23.298;2022-11-20T05:37:35;1.30;;;1.20;;
6342;SDS011;3204;42.698;23.298;2022-11-20T05:40:01;1.38;;;1.30;;
6342;SDS011;3204;42.698;23.298;2022-11-20T05:42:29;1.85;;;1.38;;
6342;SDS011;3204;42.698;23.298;2022-11-20T05:44:56;2.00;;;1.23;;
6342;SDS011;3204;42.698;23.298;2022-11-20T05:47:22;2.13;;;1.90;;
6342;SDS011;3204;42.698;23.298;2022-11-20T05:49:48;5.38;;;2.22;;
6342;SDS011;3204;42.698;23.298;2022-11-20T05:52:14;2.08;;;1.52;;
6342;SDS011;3204;42.698;23.298;2022-11-20T05:54:40;1.75;;;1.65;;
6342;SDS011;3204;42.698;23.298;2022-11-20T05:57:05;1.88;;;1.50;;
6342;SDS011;3204;42.698;23.298;2022-11-20T05:59:31;1.75;;;1.65;;
6342;SDS011;3204;42.698;23.298;2022-11-20T06:01:57;2.42;;;1.70;;
6342;SDS011;3204;42.698;23.298;2022-11-20T06:04:22;2.00;;;1.55;;
6342;SDS011;3204;42.698;23.298;2022-11-20T06:06:48;2.38;;;1.80;;
6342;SDS011;3204;42.698;23.298;2022-11-20T06:09:13;4.45;;;1.65;;
6342;SDS011;3204;42.698;23.298;2022-11-20T06:11:38;6.25;;;1.67;;
6342;SDS011;3204;42.698;23.298;2022-11-20T06:14:04;7.55;;;2.95;;
6342;SDS011;3204;42.698;23.298;2022-11-20T06:16:31;2.35;;;1.70;;
6342;SDS011;3204;42.698;23.298;2022-11-20T06:18:56;1.80;;;1.70;;
6342;SDS011;3204;42.698;23.298;2022-11-20T06:21:22;2.65;;;1.83;;
6342;SDS011;3204;42.698;23.298;2022-11-20T06:23:48;5.80;;;2.03;;
6342;SDS011;3204;42.698;23.298;2022-11-20T06:26:15;6.97;;;2.60;;
6342;SDS011;3204;42.698;23.298;2022-11-20T06:28:45;4.72;;;2.33;;
6342;SDS011;3204;42.698;23.298;2022-11-20T06:31:12;2.40;;;2.20;;
6342;SDS011;3204;42.698;23.298;2022-11-20T06:33:39;5.30;;;2.35;;
6342;SDS011;3204;42.698;23.298;2022-11-20T06:36:05;2.40;;;1.90;;
6342;SDS011;3204;42.698;23.298;2022-11-20T06:38:30;2.20;;;2.10;;
6342;SDS011;3204;42.698;23.298;2022-11-20T06:40:56;5.35;;;2.70;;
6342;SDS011;3204;42.698;23.298;2022-11-20T06:43:22;1.75;;;1.65;;
6342;SDS011;3204;42.698;23.298;2022-11-20T06:45:52;2.17;;;1.83;;
6342;SDS011;3204;42.698;23.298;2022-11-20T06:48:18;5.18;;;2.17;;
6342;SDS011;3204;42.698;23.298;2022-11-20T06:50:44;3.33;;;2.90;;
6342;SDS011;3204;42.698;23.298;2022-11-20T06:53:09;6.32;;;2.78;;
6342;SDS011;3204;42.698;23.298;2022-11-20T06:55:35;2.33;;;2.13;;
6342;SDS011;3204;42.698;23.298;2022-11-20T06:58:01;4.30;;;2.05;;
6342;SDS011;3204;42.698;23.298;2022-11-20T07:00:26;3.10;;;1.70;;
6342;SDS011;3204;42.698;23.298;2022-11-20T07:02:51;3.25;;;2.22;;
6342;SDS011;3204;42.698;23.298;2022-11-20T07:05:17;2.03;;;1.73;;
6342;SDS011;3204;42.698;23.298;2022-11-20T07:07:43;4.45;;;2.70;;
6342;SDS011;3204;42.698;23.298;2022-11-20T07:10:09;4.00;;;2.20;;
6342;SDS011;3204;42.698;23.298;2022-11-20T07:12:34;4.32;;;1.80;;
6342;SDS011;3204;42.698;23.298;2022-11-20T07:15:00;3.35;;;2.20;;
6342;SDS011;3204;42.698;23.298;2022-11-20T07:17:26;2.80;;;2.13;;
6342;SDS011;3204;42.698;23.298;2022-11-20T07:19:51;2.03;;;1.92;;
6342;SDS011;3204;42.698;23.298;2022-11-20T07:22:17;3.30;;;2.30;;
6342;SDS011;3204;42.698;23.298;2022-11-20T07:24:43;2.05;;;1.92;;
6342;SDS011;3204;42.698;23.298;2022-11-20T07:27:08;2.13;;;1.73;;
6342;SDS011;3204;42.698;23.298;2022-11-20T07:29:34;2.10;;;1.73;;
6342;SDS011;3204;42.698;23.298;2022-11-20T07:31:59;2.80;;;1.75;;
6342;SDS011;3204;42.698;23.298;2022-11-20T07:34:24;8.75;;;3.10;;
6342;SDS011;3204;42.698;23.298;2022-11-20T07:36:50;7.43;;;3.03;;
6342;SDS011;3204;42.698;23.298;2022-11-20T07:39:15;8.50;;;2.80;;
6342;SDS011;3204;42.698;23.298;2022-11-20T07:41:42;3.20;;;2.30;;
6342;SDS011;3204;42.698;23.298;2022-11-20T07:44:07;6.93;;;2.20;;
6342;SDS011;3204;42.698;23.298;2022-11-20T07:46:33;3.35;;;2.38;;
6342;SDS011;3204;42.698;23.298;2022-11-20T07:48:58;3.53;;;2.85;;
6342;SDS011;3204;42.698;23.298;2022-11-20T07:51:24;3.17;;;2.85;;
6342;SDS011;3204;42.698;23.298;2022-11-20T07:53:53;6.75;;;3.80;;
6342;SDS011;3204;42.698;23.298;2022-11-20T07:56:19;3.58;;;3.28;;
6342;SDS011;3204;42.698;23.298;2022-11-20T07:58:44;5.68;;;3.22;;
6342;SDS011;3204;42.698;23.298;2022-11-20T08:01:10;2.67;;;2.20;;
6342;SDS011;3204;42.698;23.298;2022-11-20T08:03:35;4.47;;;3.15;;
6342;SDS011;3204;42.698;23.298;2022-11-20T08:06:03;4.03;;;2.50;;
6342;SDS011;3204;42.698;23.298;2022-11-20T08:08:30;2.80;;;2.60;;
6342;SDS011;3204;42.698;23.298;2022-11-20T08:10:59;2.70;;;2.50;;
6342;SDS011;3204;42.698;23.298;2022-11-20T08:13:43;6.55;;;3.40;;
6342;SDS011;3204;42.698;23.298;2022-11-20T08:16:27;6.72;;;3.22;;
6342;SDS011;3204;42.698;23.298;2022-11-20T08:18:53;5.50;;;3.42;;
6342;SDS011;3204;42.698;23.298;2022-11-20T08:21:19;11.02;;;3.92;;
6342;SDS011;3204;42.698;23.298;2022-11-20T08:23:44;7.05;;;4.10;;
6342;SDS011;3204;42.698;23.298;2022-11-20T08:26:10;9.63;;;6.45;;
6342;SDS011;3204;42.698;23.298;2022-11-20T08:28:35;9.00;;;4.85;;
6342;SDS011;3204;42.698;23.298;2022-11-20T08:31:01;9.57;;;4.20;;
6342;SDS011;3204;42.698;23.298;2022-11-20T08:33:27;6.45;;;3.78;;
6342;SDS011;3204;42.698;23.298;2022-11-20T08:35:53;8.52;;;4.03;;
6342;SDS011;3204;42.698;23.298;2022-11-20T08:38:18;4.90;;;3.35;;
6342;SDS011;3204;42.698;23.298;2022-11-20T08:40:44;4.10;;;2.70;;
6342;SDS011;3204;42.698;23.298;2022-11-20T08:43:29;5.95;;;3.83;;
6342;SDS011;3204;42.698;23.298;2022-11-20T08:45:56;5.93;;;3.63;;
6342;SDS011;3204;42.698;23.298;2022-11-20T08:48:21;7.80;;;2.20;;
6342;SDS011;3204;42.698;23.298;2022-11-20T08:50:47;9.45;;;2.40;;
6342;SDS011;3204;42.698;23.298;2022-11-20T08:53:12;3.05;;;2.08;;
6342;SDS011;3204;42.698;23.298;2022-11-20T08:55:38;6.40;;;2.63;;
6342;SDS011;3204;42.698;23.298;2022-11-20T08:58:04;5.47;;;2.90;;
6342;SDS011;3204;42.698;23.298;2022-11-20T09:00:31;5.00;;;3.20;;
6342;SDS011;3204;42.698;23.298;2022-11-20T09:02:57;5.97;;;3.75;;
6342;SDS011;3204;42.698;23.298;2022-11-20T09:05:23;5.43;;;3.75;;
6342;SDS011;3204;42.698;23.298;2022-11-20T09:07:49;5.88;;;4.20;;
6342;SDS011;3204;42.698;23.298;2022-11-20T09:10:14;6.00;;;3.97;;
6342;SDS011;3204;42.698;23.298;2022-11-20T09:12:40;4.50;;;3.92;;
6342;SDS011;3204;42.698;23.298;2022-11-20T09:15:05;7.43;;;4.28;;
6342;SDS011;3204;42.698;23.298;2022-11-20T09:17:31;11.82;;;6.13;;
6342;SDS011;3204;42.698;23.298;2022-11-20T09:19:57;8.75;;;6.28;;
6342;SDS011;3204;42.698;23.298;2022-11-20T09:22:22;5.57;;;3.85;;
6342;SDS011;3204;42.698;23.298;2022-11-20T09:24:48;7.38;;;3.63;;
6342;SDS011;3204;42.698;23.298;2022-11-20T09:27:14;3.05;;;2.80;;
6342;SDS011;3204;42.698;23.298;2022-11-20T09:29:45;5.75;;;2.70;;
6342;SDS011;3204;42.698;23.298;2022-11-20T09:32:10;1.90;;;1.80;;
6342;SDS011;3204;42.698;23.298;2022-11-20T09:34:36;4.30;;;2.83;;
6342;SDS011;3204;42.698;23.298;2022-11-20T09:37:02;4.95;;;3.70;;
6342;SDS011;3204;42.698;23.298;2022-11-20T09:39:27;3.97;;;3.60;;
6342;SDS011;3204;42.698;23.298;2022-11-20T09:44:34;3.67;;;2.72;;
6342;SDS011;3204;42.698;23.298;2022-11-20T09:55:19;5.00;;;4.60;;
6342;SDS011;3204;42.698;23.298;2022-11-20T09:57:45;3.58;;;3.08;;
6342;SDS011;3204;42.698;23.298;2022-11-20T10:00:13;6.57;;;3.90;;
6342;SDS011;3204;42.698;23.298;2022-11-20T10:11:06;4.55;;;3.42;;
6342;SDS011;3204;42.698;23.298;2022-11-20T10:30:16;5.28;;;3.30;;
6342;SDS011;3204;42.698;23.298;2022-11-20T10:38:40;4.82;;;3.35;;
6342;SDS011;3204;42.698;23.298;2022-11-20T10:41:21;6.75;;;3.92;;
6342;SDS011;3204;42.698;23.298;2022-11-20T10:44:37;7.07;;;5.38;;
6342;SDS011;3204;42.698;23.298;2022-11-20T10:47:00;4.85;;;4.32;;
6342;SDS011;3204;42.698;23.298;2022-11-20T10:49:26;8.68;;;5.18;;
6342;SDS011;3204;42.698;23.298;2022-11-20T10:54:36;9.57;;;5.35;;
6342;SDS011;3204;42.698;23.298;2022-11-20T11:02:48;7.53;;;4.85;;
6342;SDS011;3204;42.698;23.298;2022-11-20T11:07:59;6.10;;;3.10;;
6342;SDS011;3204;42.698;23.298;2022-11-20T11:10:32;9.02;;;2.55;;
6342;SDS011;3204;42.698;23.298;2022-11-20T11:12:59;4.85;;;2.08;;
6342;SDS011;3204;42.698;23.298;2022-11-20T11:15:29;1.40;;;1.27;;
6342;SDS011;3204;42.698;23.298;2022-11-20T11:18:01;2.63;;;1.90;;
6342;SDS011;3204;42.698;23.298;2022-11-20T11:20:26;4.50;;;2.15;;
6342;SDS011;3204;42.698;23.298;2022-11-20T11:22:58;3.47;;;2.05;;
6342;SDS011;3204;42.698;23.298;2022-11-20T11:25:26;4.07;;;1.90;;
6342;SDS011;3204;42.698;23.298;2022-11-20T11:27:59;2.92;;;1.83;;
6342;SDS011;3204;42.698;23.298;2022-11-20T11:30:29;1.92;;;1.80;;
6342;SDS011;3204;42.698;23.298;2022-11-20T11:33:06;2.47;;;1.50;;
6342;SDS011;3204;42.698;23.298;2022-11-20T11:35:38;5.25;;;3.42;;
6342;SDS011;3204;42.698;23.298;2022-11-20T11:38:12;2.53;;;2.28;;
6342;SDS011;3204;42.698;23.298;2022-11-20T11:40:40;2.33;;;2.22;;
6342;SDS011;3204;42.698;23.298;2022-11-20T11:43:06;2.75;;;1.80;;
6342;SDS011;3204;42.698;23.298;2022-11-20T11:49:00;4.05;;;1.88;;
6342;SDS011;3204;42.698;23.298;2022-11-20T11:51:36;1.50;;;1.35;;
6342;SDS011;3204;42.698;23.298;2022-11-20T12:02:36;6.25;;;1.95;;
6342;SDS011;3204;42.698;23.298;2022-11-20T12:05:23;4.55;;;2.25;;
6342;SDS011;3204;42.698;23.298;2022-11-20T12:10:28;8.25;;;3.30;;
6342;SDS011;3204;42.698;23.298;2022-11-20T12:13:04;3.88;;;2.00;;
6342;SDS011;3204;42.698;23.298;2022-11-20T12:15:40;4.53;;;1.88;;
6342;SDS011;3204;42.698;23.298;2022-11-20T12:18:13;5.70;;;2.80;;
6342;SDS011;3204;42.698;23.298;2022-11-20T12:20:41;3.75;;;2.47;;
6342;SDS011;3204;42.698;23.298;2022-11-20T12:23:28;6.07;;;3.15;;
6342;SDS011;3204;42.698;23.298;2022-11-20T12:29:06;8.43;;;2.70;;
6342;SDS011;3204;42.698;23.298;2022-11-20T12:34:36;4.35;;;2.22;;
6342;SDS011;3204;42.698;23.298;2022-11-20T12:40:16;3.20;;;1.50;;
6342;SDS011;3204;42.698;23.298;2022-11-20T12:42:54;2.45;;;1.80;;
6342;SDS011;3204;42.698;23.298;2022-11-20T12:45:54;1.85;;;1.20;;
6342;SDS011;3204;42.698;23.298;2022-11-20T12:51:11;3.35;;;2.92;;
6342;SDS011;3204;42.698;23.298;2022-11-20T12:56:35;8.73;;;3.50;;
6342;SDS011;3204;42.698;23.298;2022-11-20T12:59:54;4.95;;;4.47;;
6342;SDS011;3204;42.698;23.298;2022-11-20T13:02:16;4.95;;;4.60;;
6342;SDS011;3204;42.698;23.298;2022-11-20T13:04:55;7.20;;;4.38;;
6342;SDS011;3204;42.698;23.298;2022-11-20T13:07:26;4.05;;;3.53;;
6342;SDS011;3204;42.698;23.298;2022-11-20T13:09:53;5.45;;;3.30;;
6342;SDS011;3204;42.698;23.298;2022-11-20T13:12:41;3.50;;;3.13;;
6342;SDS011;3204;42.698;23.298;2022-11-20T13:17:59;2.83;;;2.50;;
6342;SDS011;3204;42.698;23.298;2022-11-20T13:20:26;5.95;;;3.05;;
6342;SDS011;3204;42.698;23.298;2022-11-20T13:22:54;5.30;;;4.88;;
6342;SDS011;3204;42.698;23.298;2022-11-20T13:27:54;45.53;;;28.23;;
6342;SDS011;3204;42.698;23.298;2022-11-20T13:30:21;31.90;;;21.20;;
6342;SDS011;3204;42.698;23.298;2022-11-20T13:32:52;18.92;;;14.07;;
6342;SDS011;3204;42.698;23.298;2022-11-20T13:40:28;4.65;;;3.10;;
6342;SDS011;3204;42.698;23.298;2022-11-20T13:42:55;3.10;;;2.75;;
6342;SDS011;3204;42.698;23.298;2022-11-20T13:45:41;3.60;;;2.67;;
6342;SDS011;3204;42.698;23.298;2022-11-20T13:48:20;3.58;;;2.58;;
6342;SDS011;3204;42.698;23.298;2022-11-20T13:50:55;3.40;;;3.15;;
6342;SDS011;3204;42.698;23.298;2022-11-20T13:56:50;6.95;;;5.50;;
6342;SDS011;3204;42.698;23.298;2022-11-20T14:01:43;4.25;;;3.30;;
6342;SDS011;3204;42.698;23.298;2022-11-20T14:04:14;5.60;;;3.25;;
6342;SDS011;3204;42.698;23.298;2022-11-20T14:06:44;5.88;;;3.92;;
6342;SDS011;3204;42.698;23.298;2022-11-20T14:09:12;8.40;;;5.20;;
6342;SDS011;3204;42.698;23.298;2022-11-20T14:11:49;5.82;;;5.22;;
6342;SDS011;3204;42.698;23.298;2022-11-20T14:14:15;5.90;;;5.28;;
6342;SDS011;3204;42.698;23.298;2022-11-20T14:16:42;5.50;;;5.03;;
6342;SDS011;3204;42.698;23.298;2022-11-20T14:19:30;8.35;;;5.68;;
6342;SDS011;3204;42.698;23.298;2022-11-20T14:24:43;6.28;;;5.78;;
6342;SDS011;3204;42.698;23.298;2022-11-20T14:27:16;6.68;;;5.90;;
6342;SDS011;3204;42.698;23.298;2022-11-20T14:29:45;11.98;;;9.05;;
6342;SDS011;3204;42.698;23.298;2022-11-20T14:32:20;10.77;;;8.10;;
6342;SDS011;3204;42.698;23.298;2022-11-20T14:34:49;20.92;;;14.50;;
6342;SDS011;3204;42.698;23.298;2022-11-20T14:37:22;29.27;;;15.43;;
6342;SDS011;3204;42.698;23.298;2022-11-20T14:39:59;7.38;;;6.05;;
6342;SDS011;3204;42.698;23.298;2022-11-20T14:42:26;5.25;;;4.30;;
6342;SDS011;3204;42.698;23.298;2022-11-20T14:44:54;3.58;;;3.28;;
6342;SDS011;3204;42.698;23.298;2022-11-20T14:47:23;3.38;;;3.08;;
6342;SDS011;3204;42.698;23.298;2022-11-20T14:49:51;3.28;;;3.08;;
6342;SDS011;3204;42.698;23.298;2022-11-20T14:52:19;7.15;;;6.32;;
6342;SDS011;3204;42.698;23.298;2022-11-20T14:54:50;5.40;;;5.00;;
6342;SDS011;3204;42.698;23.298;2022-11-20T15:00:31;5.22;;;3.75;;
6342;SDS011;3204;42.698;23.298;2022-11-20T15:02:50;4.18;;;3.80;;
6342;SDS011;3204;42.698;23.298;2022-11-20T15:05:17;7.68;;;5.90;;
6342;SDS011;3204;42.698;23.298;2022-11-20T15:07:46;68.72;;;31.63;;
6342;SDS011;3204;42.698;23.298;2022-11-20T15:10:24;47.40;;;22.42;;
6342;SDS011;3204;42.698;23.298;2022-11-20T15:12:52;55.05;;;25.38;;
6342;SDS011;3204;42.698;23.298;2022-11-20T15:15:25;37.83;;;19.45;;
6342;SDS011;3204;42.698;23.298;2022-11-20T15:17:55;17.55;;;10.25;;
6342;SDS011;3204;42.698;23.298;2022-11-20T15:20:21;13.15;;;10.35;;
6342;SDS011;3204;42.698;23.298;2022-11-20T15:22:51;12.38;;;7.95;;
6342;SDS011;3204;42.698;23.298;2022-11-20T15:25:17;7.55;;;6.90;;
6342;SDS011;3204;42.698;23.298;2022-11-20T15:27:44;11.98;;;9.13;;
6342;SDS011;3204;42.698;23.298;2022-11-20T15:30:14;6.22;;;5.72;;
6342;SDS011;3204;42.698;23.298;2022-11-20T15:32:42;7.93;;;7.00;;
6342;SDS011;3204;42.698;23.298;2022-11-20T15:35:08;6.97;;;6.22;;
6342;SDS011;3204;42.698;23.298;2022-11-20T15:37:35;6.15;;;5.75;;
6342;SDS011;3204;42.698;23.298;2022-11-20T15:40:01;3.42;;;3.22;;
6342;SDS011;3204;42.698;23.298;2022-11-20T15:42:27;4.57;;;3.50;;
6342;SDS011;3204;42.698;23.298;2022-11-20T15:44:52;4.68;;;4.18;;
6342;SDS011;3204;42.698;23.298;2022-11-20T15:47:18;5.50;;;3.53;;
6342;SDS011;3204;42.698;23.298;2022-11-20T15:49:47;4.15;;;2.53;;
6342;SDS011;3204;42.698;23.298;2022-11-20T15:52:12;8.30;;;3.17;;
6342;SDS011;3204;42.698;23.298;2022-11-20T15:54:38;7.43;;;4.03;;
6342;SDS011;3204;42.698;23.298;2022-11-20T15:57:03;6.43;;;3.58;;
6342;SDS011;3204;42.698;23.298;2022-11-20T15:59:29;3.25;;;2.67;;
6342;SDS011;3204;42.698;23.298;2022-11-20T16:01:54;8.38;;;5.53;;
6342;SDS011;3204;42.698;23.298;2022-11-20T16:04:20;4.53;;;3.88;;
6342;SDS011;3204;42.698;23.298;2022-11-20T16:06:45;2.60;;;2.30;;
6342;SDS011;3204;42.698;23.298;2022-11-20T16:09:11;3.78;;;3.33;;
6342;SDS011;3204;42.698;23.298;2022-11-20T16:11:36;4.25;;;3.85;;
6342;SDS011;3204;42.698;23.298;2022-11-20T16:14:03;5.00;;;3.50;;
6342;SDS011;3204;42.698;23.298;2022-11-20T16:16:47;3.70;;;3.40;;
6342;SDS011;3204;42.698;23.298;2022-11-20T16:19:13;3.88;;;3.67;;
6342;SDS011;3204;42.698;23.298;2022-11-20T16:21:39;4.18;;;3.88;;
6342;SDS011;3204;42.698;23.298;2022-11-20T16:24:07;3.72;;;3.42;;
6342;SDS011;3204;42.698;23.298;2022-11-20T16:26:34;6.03;;;3.55;;
6342;SDS011;3204;42.698;23.298;2022-11-20T16:29:00;5.10;;;4.20;;
6342;SDS011;3204;42.698;23.298;2022-11-20T16:31:27;8.18;;;7.53;;
6342;SDS011;3204;42.698;23.298;2022-11-20T16:33:57;7.40;;;6.90;;
6342;SDS011;3204;42.698;23.298;2022-11-20T16:36:25;4.28;;;3.92;;
6342;SDS011;3204;42.698;23.298;2022-11-20T16:38:56;5.00;;;4.70;;
6342;SDS011;3204;42.698;23.298;2022-11-20T16:41:22;5.38;;;4.97;;
6342;SDS011;3204;42.698;23.298;2022-11-20T16:43:51;4.25;;;3.92;;
6342;SDS011;3204;42.698;23.298;2022-11-20T16:46:28;4.35;;;4.05;;
6342;SDS011;3204;42.698;23.298;2022-11-20T16:48:56;4.60;;;4.30;;
6342;SDS011;3204;42.698;23.298;2022-11-20T16:51:26;3.83;;;3.55;;
6342;SDS011;3204;42.698;23.298;2022-11-20T16:53:53;6.63;;;5.93;;
6342;SDS011;3204;42.698;23.298;2022-11-20T16:56:22;7.88;;;6.95;;
6342;SDS011;3204;42.698;23.298;2022-11-20T16:58:49;7.20;;;6.60;;
6342;SDS011;3204;42.698;23.298;2022-11-20T17:01:16;7.80;;;7.03;;